Home > Products > Valid Products > TAF

000
FTUS44 KEWX 240500
TAFSAT
TAF
KSAT 240527Z 2406/2512 09007KT P6SM FEW070 SCT250
     FM240800 VRB03KT P6SM FEW050 SCT090 BKN250
     FM241600 16006KT P6SM SCT050 BKN250=



000
FTUS44 KEWX 240500
TAFDRT
TAF
KDRT 240527Z 2406/2506 11005KT P6SM SKC
     FM241500 14008KT P6SM FEW050 SCT250=



000
FTUS44 KEWX 240500
TAFAUS
TAF
KAUS 240527Z 2406/2512 08005KT P6SM SCT250
      TEMPO 2406/2407 05010G20KT
     FM241700 15006KT P6SM SCT050 BKN250=



000
FTUS44 KEWX 240400 AAA
TAFAUS
TAF AMD
KAUS 240410Z 2404/2506 06007KT P6SM FEW050 BKN250
      TEMPO 2405/2407 05015G25KT
     FM241700 15006KT P6SM SCT050 BKN250=



000
FTUS44 KEWX 240200 AAA
TAFSAT
TAF AMD
KSAT 240206Z 2402/2506 05004KT P6SM FEW050 SCT090 BKN250
     FM240800 VRB03KT P6SM FEW050 SCT090 BKN250
     FM241600 16006KT P6SM SCT050 BKN250=



000
FTUS44 KEWX 232300
TAFAUS
TAF
KAUS 232326Z 2400/2506 04006KT P6SM FEW070
     FM240400 VRB04KT P6SM FEW050 SCT250
     FM241700 15006KT P6SM SCT050 BKN250=



000
FTUS44 KEWX 232300
TAFDRT
TAF
KDRT 232326Z 2400/2424 14007KT P6SM SCT070 SCT250
     FM240200 11005KT P6SM FEW050 SCT250
     FM241500 14009KT P6SM FEW050 SCT250=



000
FTUS44 KEWX 232300
TAFSAT
TAF
KSAT 232326Z 2400/2506 12006KT P6SM FEW070
     FM240800 20005KT P6SM FEW050 SCT250
     FM241600 16006KT P6SM SCT050 BKN250=



000
FTUS44 KEWX 231700
TAFAUS
TAF
KAUS 231737Z 2318/2424 07005KT P6SM SCT050 SCT250
     FM240600 VRB04KT P6SM FEW120 BKN250
     FM241800 17004KT P6SM SCT050 BKN250=



000
FTUS44 KEWX 231700
TAFSAT
TAF
KSAT 231737Z 2318/2424 VRB03KT P6SM FEW050 FEW250
     FM240800 21005KT P6SM FEW150 SCT250
     FM241800 16006KT P6SM SCT050 BKN250=



000
FTUS44 KEWX 231700
TAFDRT
TAF
KDRT 231737Z 2318/2418 13006KT P6SM FEW050 SCT250
     FM240900 09005KT P6SM FEW150 BKN250=



000
FTUS44 KEWX 231100
TAFDRT
TAF
KDRT 231120Z 2312/2412 10006KT P6SM FEW060
     FM231900 13007KT P6SM FEW250=



000
FTUS44 KEWX 231100
TAFSAT
TAF
KSAT 231120Z 2312/2418 00000KT P6SM FEW050 FEW250
     FM231700 08007KT P6SM FEW050 FEW250
     FM240400 12006KT P6SM FEW250=



000
FTUS44 KEWX 231100
TAFAUS
TAF
KAUS 231120Z 2312/2418 00000KT 6SM BR SCT050
     FM231400 02005KT P6SM FEW050
     FM231800 06006KT P6SM FEW050 FEW250
     FM240400 VRB04KT P6SM FEW250=



000
FTUS44 KEWX 230500
TAFAUS
TAF
KAUS 230530Z 2306/2412 VRB04KT P6SM SCT250
     FM231800 06006KT P6SM FEW250=



000
FTUS44 KEWX 230500
TAFDRT
TAF
KDRT 230530Z 2306/2406 12008KT P6SM FEW250=



000
FTUS44 KEWX 230500
TAFSAT
TAF
KSAT 230530Z 2306/2412 VRB04KT P6SM SCT250
     FM231700 08006KT P6SM FEW250=



000
FTUS44 KEWX 222300
TAFDRT
TAF
KDRT 222320Z 2300/2324 10010KT P6SM FEW250
     FM231700 13009KT P6SM FEW045 SCT250=



000
FTUS44 KEWX 222300
TAFAUS
TAF
KAUS 222320Z 2300/2406 07005KT P6SM SCT250
      TEMPO 2310/2313 5SM BR=



000
FTUS44 KEWX 222300
TAFSAT
TAF
KSAT 222320Z 2300/2406 10007KT P6SM FEW070 SCT250
     FM230800 18005KT P6SM FEW012 SCT250
      TEMPO 2310/2313 BKN012=



000
FTUS44 KEWX 221700
TAFAUS
TAF
KAUS 221726Z 2218/2324 22005KT P6SM FEW050 SCT250
     FM231800 07007KT P6SM FEW050 SCT250=



000
FTUS44 KEWX 221700
TAFSAT
TAF
KSAT 221726Z 2218/2324 15005KT P6SM FEW050 SCT250
     FM230800 18005KT P6SM FEW012 SCT250
     FM231800 08008KT P6SM FEW050 SCT250=



000
FTUS44 KEWX 221700
TAFDRT
TAF
KDRT 221726Z 2218/2318 14008KT P6SM BKN250
     FM230200 11007KT P6SM SCT250
     FM231700 13009KT P6SM FEW045 SCT250=



000
FTUS44 KEWX 221400 AAB
TAFAUS
TAF AMD
KAUS 221456Z 2215/2318 20008KT P6SM SCT016 BKN250
     FM230800 VRB03KT P6SM SCT250
     FM231400 17008KT P6SM FEW050 SCT250=



000
FTUS44 KEWX 221200 AAA
TAFAUS
TAF AMD
KAUS 221237Z 2213/2318 16003KT 6SM BR FEW008 BKN250
      TEMPO 2213/2215 BKN008
     FM221500 18007KT P6SM FEW050 SCT250
     FM230800 VRB03KT P6SM SCT250
     FM231400 17008KT P6SM FEW050 SCT250=



000
FTUS44 KEWX 221200 AAA
TAFSAT
TAF AMD
KSAT 221233Z 2213/2318 15006KT P6SM BKN009
     FM221400 13007KT P6SM SCT012 BKN020
     FM221500 15009KT P6SM FEW050 SCT250
     FM230700 18005KT P6SM FEW012 SCT250
     FM231400 15009KT P6SM FEW050 SCT250=



000
FTUS44 KEWX 221100
TAFAUS
TAF
KAUS 221128Z 2212/2318 VRB03KT P6SM FEW008 SCT250
      TEMPO 2212/2214 5SM BR BKN008
     FM221400 18007KT P6SM FEW050 SCT250
     FM230800 VRB03KT P6SM SCT250
     FM231400 17008KT P6SM FEW050 SCT250=



000
FTUS44 KEWX 221100
TAFDRT
TAF
KDRT 221128Z 2212/2312 10007KT P6SM SCT250
     FM221400 13010KT P6SM FEW060 SCT250
     FM230200 10007KT P6SM SCT250=



000
FTUS44 KEWX 221100
TAFSAT
TAF
KSAT 221128Z 2212/2318 13005KT P6SM BKN010
     FM221300 13007KT P6SM SCT012 BKN020
     FM221500 15009KT P6SM FEW050 SCT250
     FM230700 18005KT P6SM FEW012 SCT250
     FM231400 15009KT P6SM FEW050 SCT250=



000
FTUS44 KEWX 220900 AAA
TAFSAT
TAF AMD
KSAT 220911Z 2209/2312 10005KT P6SM SCT250
     FM221000 10005KT P6SM BKN012
     FM221300 13007KT P6SM SCT012 BKN020
     FM221500 15009KT P6SM FEW050 SCT250=



000
FTUS44 KEWX 220900 AAA
TAFAUS
TAF AMD
KAUS 220904Z 2209/2312 17004KT P6SM SCT250
     FM221100 18004KT 5SM BR SCT020
     FM221300 18006KT P6SM SCT035=



000
FTUS44 KEWX 220500
TAFAUS
TAF
KAUS 220535Z 2206/2312 17010KT P6SM FEW250
     FM220900 18004KT 5SM BR SCT020
     FM221300 18006KT P6SM SCT035=



000
FTUS44 KEWX 220500
TAFSAT
TAF
KSAT 220535Z 2206/2312 15009KT P6SM SKC
     FM220900 16005KT P6SM SCT025=



000
FTUS44 KEWX 220500
TAFDRT
TAF
KDRT 220535Z 2206/2306 10006KT P6SM SKC
     FM221200 13008KT P6SM SCT025=



000
FTUS44 KEWX 212300
TAFSAT
TAF
KSAT 212320Z 2200/2306 14007KT P6SM FEW060
     FM220900 16005KT P6SM SCT025=



000
FTUS44 KEWX 212300
TAFDRT
TAF
KDRT 212320Z 2200/2224 13012KT P6SM SKC
     FM220200 10010KT P6SM FEW250
     FM221200 13008KT P6SM SCT025=



000
FTUS44 KEWX 212300
TAFAUS
TAF
KAUS 212320Z 2200/2306 12006KT P6SM SCT070
     FM220900 18004KT 6SM BR SCT020
     FM221300 18006KT P6SM SCT035=



000
FTUS44 KEWX 211700
TAFSAT
TAF
KSAT 211727Z 2118/2224 16008KT P6SM FEW050 SCT250
     FM212100 14010KT P6SM FEW250
     FM220600 17005KT P6SM FEW250
     FM220900 18005KT P6SM SCT025=



000
FTUS44 KEWX 211700
TAFDRT
TAF
KDRT 211727Z 2118/2218 11010KT P6SM OVC022
     FM211900 14012G20KT P6SM FEW060
     FM220200 10010KT P6SM FEW250
     FM221200 13008KT P6SM SCT025=



000
FTUS44 KEWX 211700
TAFAUS
TAF
KAUS 211727Z 2118/2224 18007KT P6SM SCT050 SCT250
     FM220200 17004KT P6SM FEW250
     FM220900 18004KT 6SM BR SCT020
     FM221300 18006KT P6SM SCT035=



000
FTUS44 KEWX 211400 AAA
TAFAUS
TAF AMD
KAUS 211440Z 2115/2218 18008KT P6SM OVC018
     FM211600 18007KT P6SM SCT050 SCT250
     FM220200 17004KT P6SM FEW250=



000
FTUS44 KEWX 211400 AAA
TAFDRT
TAF AMD
KDRT 211438Z 2115/2212 11010KT P6SM OVC017
     FM211600 14012G22KT P6SM FEW060
     FM220200 10011KT P6SM FEW250=



000
FTUS44 KEWX 211100 CCB
TAFAUS
TAF COR
KAUS 211149Z 2112/2218 VRB03KT P6SM SCT008 SCT015 BKN120
      TEMPO 2112/2114 5SM BR BKN008
     FM211600 18007KT P6SM SCT050 SCT250
     FM220200 17004KT P6SM FEW250=



000
FTUS44 KEWX 211100 CCA
TAFAUS
TAF COR
KAUS 211140Z 2112/2218 VRB03KT P6SM SCT008 BKN015
      TEMPO 2112/2114 5SM BR BKN008
     FM211600 18007KT P6SM SCT050 SCT250
     FM220200 17004KT P6SM FEW250=



000
FTUS44 KEWX 211100
TAFAUS
TAF
KAUS 211132Z 2112/2218 VRB04KT P6SM SCT015 SCT100
      TEMPO 2112/2114 5SM BR BKN008
     FM211600 18007KT P6SM SCT050 SCT250
     FM220200 17004KT P6SM FEW250=



000
FTUS44 KEWX 211100
TAFDRT
TAF
KDRT 211132Z 2112/2212 11010KT P6SM FEW050 BKN250
     FM211600 14012G22KT P6SM FEW060
     FM220200 10011KT P6SM FEW250=



000
FTUS44 KEWX 211100
TAFSAT
TAF
KSAT 211132Z 2112/2218 14006KT P6SM BKN012 BKN020
     FM211500 16009KT P6SM FEW050 SCT250
     FM212100 14010KT P6SM FEW250
     FM220600 17006KT P6SM FEW250=



000
FTUS44 KEWX 211000 AAB
TAFAUS
TAF AMD
KAUS 211022Z 2110/2212 17005KT P6SM SCT020 SCT250
      TEMPO 2111/2114 5SM BR BKN008
     FM211600 18007KT P6SM SCT050 BKN250=



000
FTUS44 KEWX 210800 AAA
TAFSAT
TAF AMD
KSAT 210802Z 2108/2212 11007KT P6SM SCT015
     FM210900 17006KT P6SM BKN010
     FM211500 16009KT P6SM FEW050 BKN250=



000
FTUS44 KEWX 210800 AAA
TAFAUS
TAF AMD
KAUS 210800Z 2108/2212 18005KT 5SM BR SCT020
     FM211000 18005KT P6SM BKN015
      TEMPO 2111/2114 4SM BR BKN008
     FM211600 18007KT P6SM SCT050 BKN250=



    US Dept of Commerce
    National Oceanic and Atmospheric Administration
    National Weather Service
    1325 East West Highway
    Silver Spring, MD 20910
    Page Author: NWS Internet Services Team
Disclaimer
Information Quality
Credits
Glossary
Privacy Policy
Freedom of Information Act (FOIA)
About Us
Career Opportunities